aviador You're here:

KPNE Decoded Metar

PHILADELPHIA in PA, USA
Report Time2017-06-24 21:54:00
UTC Time2017-06-24 22:23:57
Flight Rules vfr VFR
Wind270° at 10 Gusting to 19 kt
W.Decomp.*RWY 24: 7.4 kt HW 6.7 kt RCW
RWY 33: 6.7 kt HW 7.4 kt LCW
W.Rank270° ranks 12
Current wind is above 270° avg. (8.2)
Visibility9999 m
Phenomena:N/A
Clouds:Few 065 Hf
Expected CloudBase > 6,400 ft AGL from Temp-Dew spread
CeilingNone
Temp30°C (ISA +15)
Dew Point14°C (38% RH)
Heat Index29.5°C
AAT27.7°C
QNH1011 hPa
Density Alt2,113 ft
Elevation92 ft
Report Wrong Elevation
Raw Report
KPNE 242154Z 27010G19KT 10SM FEW065 30/14 A2985 RMK AO2 SLP105
T03000144=

Extra information for KPNE:More info

Metar Taf Metar & Taf Last 4 Metars F.Rules Stats Wind Profile Meteogram Temp Stats Airport Information Weather charts Add Link Nearby VenuesMetar ALERT Operation Metar Decoded Social comments

AIRNAV info for KPNE